createdAt,value
2023-01-21T00:04:23.045Z,102025.28
2023-01-21T00:11:24.673Z,102023.22
2023-01-21T00:18:27.121Z,102034.28
2023-01-21T00:25:29.956Z,102035.84
2023-01-21T00:32:31.532Z,102033.00
2023-01-21T00:39:33.170Z,102032.16
2023-01-21T00:46:34.884Z,102050.91
2023-01-21T00:53:38.245Z,102055.25
2023-01-21T01:00:39.889Z,102076.91
2023-01-21T01:07:43.359Z,102076.72
2023-01-21T01:14:45.133Z,102084.59
2023-01-21T01:21:46.828Z,102103.53
2023-01-21T01:28:48.649Z,102098.03
2023-01-21T01:35:50.330Z,102098.78
2023-01-21T01:42:51.975Z,102091.53
2023-01-21T01:49:53.690Z,102081.69
2023-01-21T01:56:56.419Z,102086.22
2023-01-21T02:04:00.842Z,102090.63
2023-01-21T02:11:03.288Z,102094.28
2023-01-21T02:18:23.575Z,102102.75
2023-01-21T02:25:43.480Z,102114.44
2023-01-21T02:33:08.694Z,102122.25
2023-01-21T02:40:14.099Z,102120.66
2023-01-21T02:47:54.165Z,102120.50
2023-01-21T02:54:58.026Z,102109.84
2023-01-21T03:02:08.777Z,102097.50
2023-01-21T03:09:18.005Z,102122.50
2023-01-21T03:16:40.246Z,102131.28
2023-01-21T03:23:44.905Z,102130.44
2023-01-21T03:30:49.212Z,102127.75
2023-01-21T03:38:13.209Z,102136.56
2023-01-21T03:45:14.912Z,102127.69
2023-01-21T03:52:16.482Z,102128.50
2023-01-21T03:59:18.072Z,102109.97
2023-01-21T04:06:20.952Z,102117.94
2023-01-21T04:13:22.620Z,102124.28
2023-01-21T04:20:24.283Z,102128.63
2023-01-21T04:27:25.975Z,102130.38
2023-01-21T04:34:27.654Z,102132.19
2023-01-21T04:41:29.302Z,102131.38
2023-01-21T04:48:31.371Z,102126.06
2023-01-21T04:55:33.038Z,102129.47
2023-01-21T05:02:34.724Z,102135.75
2023-01-21T05:09:36.399Z,102143.78
2023-01-21T05:16:38.157Z,102153.63
2023-01-21T05:23:39.814Z,102170.50
2023-01-21T05:30:43.280Z,102171.31
2023-01-21T05:37:47.717Z,102180.25
2023-01-21T05:44:49.352Z,102176.56
2023-01-21T05:51:51.044Z,102187.25
2023-01-21T05:58:52.647Z,102187.34
2023-01-21T06:05:54.260Z,102198.78
2023-01-21T06:12:55.939Z,102193.41
2023-01-21T06:19:57.520Z,102198.66
2023-01-21T06:26:59.172Z,102217.59
2023-01-21T06:34:00.785Z,102219.41
2023-01-21T06:41:03.103Z,102223.84
2023-01-21T06:48:04.925Z,102228.13
2023-01-21T06:55:06.845Z,102237.88
2023-01-21T07:02:11.044Z,102234.44
2023-01-21T07:09:12.713Z,102243.34
2023-01-21T07:16:14.567Z,102246.88
2023-01-21T07:23:16.204Z,102238.91
2023-01-21T07:30:19.206Z,102243.25
2023-01-21T07:37:21.018Z,102254.84
2023-01-21T07:44:22.663Z,102259.22
2023-01-21T07:51:24.348Z,102272.66
2023-01-21T07:58:28.975Z,102273.31
2023-01-21T08:05:30.764Z,102268.00
2023-01-21T08:12:32.525Z,102261.03
2023-01-21T08:19:34.185Z,102255.66
2023-01-21T08:26:35.838Z,102267.09
2023-01-21T08:33:37.781Z,102264.47
2023-01-21T08:40:39.483Z,102252.69
2023-01-21T08:47:41.139Z,102255.31
2023-01-21T08:54:43.329Z,102262.56
2023-01-21T09:01:45.198Z,102240.22
2023-01-21T09:08:46.860Z,102250.81
2023-01-21T09:15:48.500Z,102253.47
2023-01-21T09:22:50.124Z,102256.78
2023-01-21T09:29:51.812Z,102251.78
2023-01-21T09:36:53.469Z,102269.28
2023-01-21T09:44:01.149Z,102251.38
2023-01-21T09:51:05.972Z,102258.41
2023-01-21T09:58:48.130Z,102262.19
2023-01-21T10:05:52.828Z,102254.00
2023-01-21T10:13:00.301Z,102248.59
2023-01-21T10:20:13.267Z,102241.50
2023-01-21T10:27:16.430Z,102239.09
2023-01-21T10:34:18.532Z,102228.09
2023-01-21T10:41:45.075Z,102220.81
2023-01-21T10:48:49.066Z,102224.47
2023-01-21T10:56:15.415Z,102220.81
2023-01-21T11:03:30.899Z,102214.16
2023-01-21T11:10:32.580Z,102194.63
2023-01-21T11:17:35.832Z,102183.59
2023-01-21T11:24:45.400Z,102172.81
2023-01-21T11:32:03.460Z,102172.47
2023-01-21T11:39:06.469Z,102143.84
2023-01-21T11:46:30.934Z,102139.19
2023-01-21T11:53:32.619Z,102144.03
2023-01-21T12:00:36.051Z,102134.09
2023-01-21T12:07:39.259Z,102124.22
2023-01-21T12:14:56.420Z,102115.06
2023-01-21T12:22:21.297Z,102116.06
2023-01-21T12:29:51.139Z,102101.63
2023-01-21T12:37:00.371Z,102105.81
2023-01-21T12:44:17.509Z,102102.31
2023-01-21T12:51:37.493Z,102093.34
2023-01-21T12:58:44.328Z,102104.22
2023-01-21T13:05:57.215Z,102097.91
2023-01-21T13:13:06.427Z,102094.25
2023-01-21T13:20:17.981Z,102091.81
2023-01-21T13:27:21.858Z,102085.91
2023-01-21T13:34:32.411Z,102065.13
2023-01-21T13:41:55.862Z,102039.75
2023-01-21T13:49:16.479Z,102061.28
2023-01-21T13:56:40.573Z,102064.50
2023-01-21T14:03:48.255Z,102051.00
2023-01-21T14:10:51.286Z,102007.31
2023-01-21T14:18:04.221Z,101979.53
2023-01-21T14:25:12.280Z,102011.41
2023-01-21T14:32:32.236Z,102009.09
2023-01-21T14:40:03.223Z,102036.00
2023-01-21T14:47:17.385Z,102033.06
2023-01-21T14:54:23.425Z,102023.88
2023-01-21T15:01:38.654Z,101993.06
2023-01-21T15:08:45.991Z,101988.03
2023-01-21T15:16:17.189Z,101976.34
2023-01-21T15:23:30.987Z,101977.25
2023-01-21T15:30:45.097Z,101962.59
2023-01-21T15:37:53.689Z,101994.63
2023-01-21T15:45:17.019Z,101981.38
2023-01-21T15:52:36.476Z,101976.75
2023-01-21T16:00:00.164Z,101983.03
2023-01-21T16:07:42.320Z,101988.03
2023-01-21T16:14:53.386Z,101981.88
2023-01-21T16:21:58.552Z,101982.16
2023-01-21T16:29:00.268Z,101985.84
2023-01-21T16:36:07.429Z,101999.78
2023-01-21T16:43:22.959Z,102005.88
2023-01-21T16:50:26.683Z,102007.03
2023-01-21T16:57:31.946Z,101985.25
2023-01-21T17:04:33.938Z,102002.03
2023-01-21T17:11:36.743Z,102004.13
2023-01-21T17:18:40.679Z,101999.19
2023-01-21T17:25:42.622Z,102007.38
2023-01-21T17:32:44.541Z,102006.78
2023-01-21T17:39:46.588Z,102006.06
2023-01-21T17:46:50.325Z,102018.41
2023-01-21T17:53:56.400Z,102021.22
2023-01-21T18:01:01.960Z,102029.88
2023-01-21T18:08:04.573Z,102024.72
2023-01-21T18:15:06.921Z,102019.19
2023-01-21T18:22:14.755Z,102031.78
2023-01-21T18:29:18.223Z,102042.31
2023-01-21T18:36:19.930Z,102046.28
2023-01-21T18:43:21.724Z,102039.50
2023-01-21T18:50:27.516Z,102052.31
2023-01-21T18:57:29.249Z,102054.16
2023-01-21T19:04:31.144Z,102055.78
2023-01-21T19:11:32.982Z,102062.25
2023-01-21T19:18:36.189Z,102057.84
2023-01-21T19:25:37.913Z,102062.22
2023-01-21T19:32:39.731Z,102066.56
2023-01-21T19:39:41.904Z,102059.56
2023-01-21T19:46:43.846Z,102076.22
2023-01-21T19:53:45.582Z,102089.78
2023-01-21T20:00:49.141Z,102094.00
2023-01-21T20:07:50.929Z,102100.59
2023-01-21T20:14:52.567Z,102097.75
2023-01-21T20:22:02.055Z,102097.00
2023-01-21T20:29:06.510Z,102113.94
2023-01-21T20:36:18.201Z,102110.91
2023-01-21T20:43:20.533Z,102118.94
2023-01-21T20:50:26.396Z,102136.75
2023-01-21T20:57:28.057Z,102139.16
2023-01-21T21:04:29.968Z,102150.16
2023-01-21T21:11:31.724Z,102151.06
2023-01-21T21:18:35.216Z,102150.88
2023-01-21T21:25:40.689Z,102147.34
2023-01-21T21:32:42.295Z,102158.16
2023-01-21T21:39:43.922Z,102162.75
2023-01-21T21:47:04.587Z,102165.94
2023-01-21T21:54:07.802Z,102172.03
2023-01-21T22:01:14.269Z,102183.78
2023-01-21T22:08:16.220Z,102186.69
2023-01-21T22:15:19.241Z,102182.88
2023-01-21T22:22:21.230Z,102192.97
2023-01-21T22:29:22.903Z,102186.44
2023-01-21T22:36:25.594Z,102188.13
2023-01-21T22:43:27.899Z,102197.13
2023-01-21T22:50:29.616Z,102208.94
2023-01-21T22:57:31.254Z,102217.81
2023-01-21T23:04:32.935Z,102208.84
2023-01-21T23:11:34.794Z,102216.84
2023-01-21T23:18:40.632Z,102221.28
2023-01-21T23:25:45.081Z,102218.72
2023-01-21T23:32:46.907Z,102226.59
2023-01-21T23:39:48.557Z,102223.72
2023-01-21T23:46:50.486Z,102214.97
2023-01-21T23:53:53.664Z,102224.78
